sensor_id;sensor_type;location;lat;lon;timestamp;pressure;altitude;pressure_sealevel;temperature;humidity
67740;BME280;54536;50.090;14.420;2023-05-22T00:00:46;99397.88;;;21.21;52.61
67740;BME280;54536;50.090;14.420;2023-05-22T00:03:21;99402.81;;;21.11;52.90
67740;BME280;54536;50.090;14.420;2023-05-22T00:05:51;99400.78;;;21.00;53.45
67740;BME280;54536;50.090;14.420;2023-05-22T00:08:18;99408.38;;;20.96;53.13
67740;BME280;54536;50.090;14.420;2023-05-22T00:10:44;99398.28;;;20.92;53.20
67740;BME280;54536;50.090;14.420;2023-05-22T00:13:10;99399.47;;;20.83;53.57
67740;BME280;54536;50.090;14.420;2023-05-22T00:15:36;99405.88;;;20.95;53.26
67740;BME280;54536;50.090;14.420;2023-05-22T00:18:02;99402.63;;;20.93;52.98
67740;BME280;54536;50.090;14.420;2023-05-22T00:20:29;99404.44;;;20.92;53.48
67740;BME280;54536;50.090;14.420;2023-05-22T00:22:55;99393.31;;;20.89;53.13
67740;BME280;54536;50.090;14.420;2023-05-22T00:25:23;99400.13;;;20.91;53.60
67740;BME280;54536;50.090;14.420;2023-05-22T00:27:49;99403.44;;;20.93;53.58
67740;BME280;54536;50.090;14.420;2023-05-22T00:30:15;99403.59;;;20.78;53.79
67740;BME280;54536;50.090;14.420;2023-05-22T00:32:41;99403.56;;;20.65;54.28
67740;BME280;54536;50.090;14.420;2023-05-22T00:35:08;99393.94;;;20.71;53.85
67740;BME280;54536;50.090;14.420;2023-05-22T00:37:37;99398.66;;;20.75;53.42
67740;BME280;54536;50.090;14.420;2023-05-22T00:40:04;99401.13;;;20.70;54.36
67740;BME280;54536;50.090;14.420;2023-05-22T00:42:33;99405.22;;;20.73;54.60
67740;BME280;54536;50.090;14.420;2023-05-22T00:44:59;99406.44;;;20.64;54.04
67740;BME280;54536;50.090;14.420;2023-05-22T00:47:26;99406.66;;;20.69;53.55
67740;BME280;54536;50.090;14.420;2023-05-22T00:49:52;99401.09;;;20.64;54.32
67740;BME280;54536;50.090;14.420;2023-05-22T00:52:19;99401.28;;;20.62;53.85
67740;BME280;54536;50.090;14.420;2023-05-22T00:54:47;99402.53;;;20.66;53.60
67740;BME280;54536;50.090;14.420;2023-05-22T00:57:16;99401.66;;;20.52;53.92
67740;BME280;54536;50.090;14.420;2023-05-22T00:59:43;99396.97;;;20.54;53.89
67740;BME280;54536;50.090;14.420;2023-05-22T01:02:09;99389.94;;;20.53;54.11
67740;BME280;54536;50.090;14.420;2023-05-22T01:04:35;99393.59;;;20.46;54.84
67740;BME280;54536;50.090;14.420;2023-05-22T01:07:02;99390.34;;;20.50;54.60
67740;BME280;54536;50.090;14.420;2023-05-22T01:09:28;99392.38;;;20.42;54.48
67740;BME280;54536;50.090;14.420;2023-05-22T01:11:59;99391.88;;;20.25;55.10
67740;BME280;54536;50.090;14.420;2023-05-22T01:15:02;99397.69;;;20.35;54.78
67740;BME280;54536;50.090;14.420;2023-05-22T01:20:05;99397.50;;;20.43;54.43
67740;BME280;54536;50.090;14.420;2023-05-22T01:31:14;99395.81;;;20.35;54.20
67740;BME280;54536;50.090;14.420;2023-05-22T01:33:48;99393.53;;;20.26;54.67
67740;BME280;54536;50.090;14.420;2023-05-22T01:36:19;99396.84;;;20.28;54.45
67740;BME280;54536;50.090;14.420;2023-05-22T01:38:53;99398.06;;;20.25;54.51
67740;BME280;54536;50.090;14.420;2023-05-22T01:41:20;99397.66;;;20.28;54.22
67740;BME280;54536;50.090;14.420;2023-05-22T01:43:46;99403.34;;;20.19;54.80
67740;BME280;54536;50.090;14.420;2023-05-22T01:46:13;99397.59;;;20.15;54.91
67740;BME280;54536;50.090;14.420;2023-05-22T01:48:39;99405.31;;;20.03;54.93
67740;BME280;54536;50.090;14.420;2023-05-22T01:51:29;99399.22;;;20.16;54.69
67740;BME280;54536;50.090;14.420;2023-05-22T01:56:54;99402.13;;;20.15;54.96
67740;BME280;54536;50.090;14.420;2023-05-22T01:59:33;99403.28;;;20.05;55.23
67740;BME280;54536;50.090;14.420;2023-05-22T02:02:06;99401.69;;;20.11;55.04
67740;BME280;54536;50.090;14.420;2023-05-22T02:04:38;99404.53;;;20.09;54.87
67740;BME280;54536;50.090;14.420;2023-05-22T02:07:12;99400.81;;;20.04;55.28
67740;BME280;54536;50.090;14.420;2023-05-22T02:09:40;99397.75;;;20.07;55.19
67740;BME280;54536;50.090;14.420;2023-05-22T02:12:08;99406.75;;;19.99;55.26
67740;BME280;54536;50.090;14.420;2023-05-22T02:14:36;99406.97;;;20.04;54.77
67740;BME280;54536;50.090;14.420;2023-05-22T02:17:05;99398.34;;;20.02;55.73
67740;BME280;54536;50.090;14.420;2023-05-22T02:19:33;99408.81;;;20.04;55.47
67740;BME280;54536;50.090;14.420;2023-05-22T02:22:01;99393.69;;;19.76;56.25
67740;BME280;54536;50.090;14.420;2023-05-22T02:24:29;99385.78;;;19.96;55.46
67740;BME280;54536;50.090;14.420;2023-05-22T02:26:55;99380.84;;;19.93;55.96
67740;BME280;54536;50.090;14.420;2023-05-22T02:29:21;99385.06;;;19.81;56.44
67740;BME280;54536;50.090;14.420;2023-05-22T02:31:52;99383.78;;;19.70;56.42
67740;BME280;54536;50.090;14.420;2023-05-22T02:34:18;99388.72;;;19.73;56.16
67740;BME280;54536;50.090;14.420;2023-05-22T02:36:45;99389.00;;;19.57;56.93
67740;BME280;54536;50.090;14.420;2023-05-22T02:39:12;99382.47;;;19.59;57.07
67740;BME280;54536;50.090;14.420;2023-05-22T02:41:38;99382.47;;;19.59;56.51
67740;BME280;54536;50.090;14.420;2023-05-22T02:44:04;99384.88;;;19.54;56.53
67740;BME280;54536;50.090;14.420;2023-05-22T02:46:31;99377.66;;;19.48;57.46
67740;BME280;54536;50.090;14.420;2023-05-22T02:48:57;99379.50;;;19.48;57.22
67740;BME280;54536;50.090;14.420;2023-05-22T02:51:23;99383.31;;;19.38;57.73
67740;BME280;54536;50.090;14.420;2023-05-22T02:53:50;99384.13;;;19.39;57.14
67740;BME280;54536;50.090;14.420;2023-05-22T02:56:16;99385.88;;;19.25;56.83
67740;BME280;54536;50.090;14.420;2023-05-22T02:58:43;99387.09;;;19.23;57.46
67740;BME280;54536;50.090;14.420;2023-05-22T03:01:09;99393.22;;;19.16;57.46
67740;BME280;54536;50.090;14.420;2023-05-22T03:03:36;99385.97;;;19.10;56.97
67740;BME280;54536;50.090;14.420;2023-05-22T03:06:03;99389.25;;;19.12;56.66
67740;BME280;54536;50.090;14.420;2023-05-22T03:08:32;99386.78;;;19.11;56.75
67740;BME280;54536;50.090;14.420;2023-05-22T03:11:00;99384.25;;;18.81;58.13
67740;BME280;54536;50.090;14.420;2023-05-22T03:13:26;99386.03;;;18.95;57.50
67740;BME280;54536;50.090;14.420;2023-05-22T03:15:53;99383.13;;;18.90;57.82
67740;BME280;54536;50.090;14.420;2023-05-22T03:18:19;99387.44;;;18.91;57.97
67740;BME280;54536;50.090;14.420;2023-05-22T03:20:46;99387.53;;;18.83;57.91
67740;BME280;54536;50.090;14.420;2023-05-22T03:23:12;99389.53;;;18.75;58.42
67740;BME280;54536;50.090;14.420;2023-05-22T03:25:39;99385.91;;;18.82;58.50
67740;BME280;54536;50.090;14.420;2023-05-22T03:28:05;99387.84;;;18.74;58.50
67740;BME280;54536;50.090;14.420;2023-05-22T03:30:32;99388.41;;;18.84;57.87
67740;BME280;54536;50.090;14.420;2023-05-22T03:32:58;99386.47;;;18.78;58.53
67740;BME280;54536;50.090;14.420;2023-05-22T03:35:24;99390.28;;;18.90;57.52
67740;BME280;54536;50.090;14.420;2023-05-22T03:37:51;99389.84;;;18.86;58.14
67740;BME280;54536;50.090;14.420;2023-05-22T03:40:17;99387.44;;;18.91;57.62
67740;BME280;54536;50.090;14.420;2023-05-22T03:42:43;99379.88;;;18.74;58.41
67740;BME280;54536;50.090;14.420;2023-05-22T03:45:10;99383.06;;;18.84;58.17
67740;BME280;54536;50.090;14.420;2023-05-22T03:47:36;99380.78;;;18.81;58.05
67740;BME280;54536;50.090;14.420;2023-05-22T03:50:03;99386.56;;;18.84;58.12
67740;BME280;54536;50.090;14.420;2023-05-22T03:52:29;99389.22;;;18.84;57.68
67740;BME280;54536;50.090;14.420;2023-05-22T03:54:55;99382.53;;;18.95;57.73
67740;BME280;54536;50.090;14.420;2023-05-22T03:57:21;99379.22;;;18.93;57.45
67740;BME280;54536;50.090;14.420;2023-05-22T03:59:48;99380.19;;;18.85;57.71
67740;BME280;54536;50.090;14.420;2023-05-22T04:02:14;99389.06;;;18.92;57.79
67740;BME280;54536;50.090;14.420;2023-05-22T04:04:42;99378.69;;;18.98;57.77
67740;BME280;54536;50.090;14.420;2023-05-22T04:07:11;99384.94;;;18.90;57.74
67740;BME280;54536;50.090;14.420;2023-05-22T04:09:39;99376.06;;;18.83;57.74
67740;BME280;54536;50.090;14.420;2023-05-22T04:12:06;99378.56;;;18.84;57.67
67740;BME280;54536;50.090;14.420;2023-05-22T04:14:33;99372.91;;;18.94;58.03
67740;BME280;54536;50.090;14.420;2023-05-22T04:16:59;99375.25;;;19.04;57.89
67740;BME280;54536;50.090;14.420;2023-05-22T04:19:25;99380.97;;;19.01;57.76
67740;BME280;54536;50.090;14.420;2023-05-22T04:21:52;99376.06;;;19.04;57.08
67740;BME280;54536;50.090;14.420;2023-05-22T04:24:20;99381.09;;;18.92;57.73
67740;BME280;54536;50.090;14.420;2023-05-22T04:26:48;99367.88;;;19.06;57.78
67740;BME280;54536;50.090;14.420;2023-05-22T04:29:17;99374.75;;;18.93;57.66
67740;BME280;54536;50.090;14.420;2023-05-22T04:31:44;99367.22;;;18.97;57.96
67740;BME280;54536;50.090;14.420;2023-05-22T04:34:11;99369.81;;;18.90;58.14
67740;BME280;54536;50.090;14.420;2023-05-22T04:36:40;99366.44;;;19.03;57.02
67740;BME280;54536;50.090;14.420;2023-05-22T04:39:06;99365.59;;;19.03;57.08
67740;BME280;54536;50.090;14.420;2023-05-22T04:41:32;99372.16;;;19.00;57.13
67740;BME280;54536;50.090;14.420;2023-05-22T04:43:59;99370.38;;;19.07;57.17
67740;BME280;54536;50.090;14.420;2023-05-22T04:46:28;99370.81;;;19.11;57.05
67740;BME280;54536;50.090;14.420;2023-05-22T04:48:55;99370.16;;;19.09;56.72
67740;BME280;54536;50.090;14.420;2023-05-22T04:51:21;99370.91;;;19.03;57.26
67740;BME280;54536;50.090;14.420;2023-05-22T04:53:48;99372.78;;;19.02;57.54
67740;BME280;54536;50.090;14.420;2023-05-22T04:56:14;99366.38;;;18.97;57.68
67740;BME280;54536;50.090;14.420;2023-05-22T04:58:41;99370.59;;;19.12;57.26
67740;BME280;54536;50.090;14.420;2023-05-22T05:01:07;99367.88;;;19.06;56.75
67740;BME280;54536;50.090;14.420;2023-05-22T05:03:34;99367.50;;;19.09;57.26
67740;BME280;54536;50.090;14.420;2023-05-22T05:06:00;99369.22;;;19.16;56.49
67740;BME280;54536;50.090;14.420;2023-05-22T05:08:27;99369.44;;;19.22;56.19
67740;BME280;54536;50.090;14.420;2023-05-22T05:10:53;99363.72;;;19.25;56.27
67740;BME280;54536;50.090;14.420;2023-05-22T05:13:19;99363.72;;;19.25;56.46
67740;BME280;54536;50.090;14.420;2023-05-22T05:15:45;99359.88;;;19.27;56.06
67740;BME280;54536;50.090;14.420;2023-05-22T05:18:12;99353.16;;;19.38;55.52
67740;BME280;54536;50.090;14.420;2023-05-22T05:20:37;99350.13;;;19.41;55.57
67740;BME280;54536;50.090;14.420;2023-05-22T05:23:04;99356.53;;;19.47;55.07
67740;BME280;54536;50.090;14.420;2023-05-22T05:25:30;99349.16;;;19.55;55.37
67740;BME280;54536;50.090;14.420;2023-05-22T05:27:56;99344.44;;;19.51;54.95
67740;BME280;54536;50.090;14.420;2023-05-22T05:30:22;99350.94;;;19.70;54.48
67740;BME280;54536;50.090;14.420;2023-05-22T05:32:49;99353.44;;;19.78;54.76
67740;BME280;54536;50.090;14.420;2023-05-22T05:35:18;99348.97;;;19.78;54.53
67740;BME280;54536;50.090;14.420;2023-05-22T05:37:44;99349.19;;;19.83;54.65
67740;BME280;54536;50.090;14.420;2023-05-22T05:40:11;99351.88;;;19.90;53.86
67740;BME280;54536;50.090;14.420;2023-05-22T05:42:37;99354.78;;;19.95;53.73
67740;BME280;54536;50.090;14.420;2023-05-22T05:45:04;99346.00;;;20.01;53.99
67740;BME280;54536;50.090;14.420;2023-05-22T05:47:30;99344.59;;;20.12;52.88
67740;BME280;54536;50.090;14.420;2023-05-22T05:49:56;99350.34;;;20.09;53.33
67740;BME280;54536;50.090;14.420;2023-05-22T05:52:26;99355.91;;;20.21;52.99
67740;BME280;54536;50.090;14.420;2023-05-22T05:54:59;99342.16;;;20.24;53.06
67740;BME280;54536;50.090;14.420;2023-05-22T05:57:27;99344.25;;;20.35;52.22
67740;BME280;54536;50.090;14.420;2023-05-22T05:59:53;99346.56;;;20.45;52.12
67740;BME280;54536;50.090;14.420;2023-05-22T06:02:19;99345.53;;;20.46;52.09
67740;BME280;54536;50.090;14.420;2023-05-22T06:04:46;99341.03;;;20.53;52.17
67740;BME280;54536;50.090;14.420;2023-05-22T06:07:14;99339.44;;;20.65;51.08
67740;BME280;54536;50.090;14.420;2023-05-22T06:09:41;99336.13;;;20.70;51.26
67740;BME280;54536;50.090;14.420;2023-05-22T06:12:07;99341.09;;;20.73;50.88
67740;BME280;54536;50.090;14.420;2023-05-22T06:14:38;99339.88;;;20.89;50.37
67740;BME280;54536;50.090;14.420;2023-05-22T06:17:07;99337.81;;;20.91;50.26
67740;BME280;54536;50.090;14.420;2023-05-22T06:19:34;99329.41;;;21.00;49.87
67740;BME280;54536;50.090;14.420;2023-05-22T06:22:00;99329.41;;;21.14;49.39
67740;BME280;54536;50.090;14.420;2023-05-22T06:24:26;99330.63;;;21.24;49.43
67740;BME280;54536;50.090;14.420;2023-05-22T06:26:55;99326.06;;;21.32;48.98
67740;BME280;54536;50.090;14.420;2023-05-22T06:29:21;99323.22;;;21.40;48.90
67740;BME280;54536;50.090;14.420;2023-05-22T06:31:48;99323.00;;;21.48;48.69
67740;BME280;54536;50.090;14.420;2023-05-22T06:34:14;99321.56;;;21.59;47.90
67740;BME280;54536;50.090;14.420;2023-05-22T06:36:40;99316.78;;;21.67;47.84
67740;BME280;54536;50.090;14.420;2023-05-22T06:39:08;99317.41;;;21.69;47.74
67740;BME280;54536;50.090;14.420;2023-05-22T06:41:34;99319.41;;;21.81;47.36
67740;BME280;54536;50.090;14.420;2023-05-22T06:44:01;99320.44;;;21.86;47.38
67740;BME280;54536;50.090;14.420;2023-05-22T06:46:27;99319.41;;;21.87;47.46
67740;BME280;54536;50.090;14.420;2023-05-22T06:48:53;99318.34;;;21.95;47.32
67740;BME280;54536;50.090;14.420;2023-05-22T06:51:23;99320.34;;;22.06;47.11
67740;BME280;54536;50.090;14.420;2023-05-22T06:53:49;99316.66;;;22.07;47.04
67740;BME280;54536;50.090;14.420;2023-05-22T06:56:16;99315.19;;;22.18;46.76
67740;BME280;54536;50.090;14.420;2023-05-22T06:58:43;99324.63;;;22.27;46.32
67740;BME280;54536;50.090;14.420;2023-05-22T07:01:09;99319.44;;;22.32;46.63
67740;BME280;54536;50.090;14.420;2023-05-22T07:03:35;99322.31;;;22.37;46.54
67740;BME280;54536;50.090;14.420;2023-05-22T07:06:02;99324.34;;;22.42;46.55
67740;BME280;54536;50.090;14.420;2023-05-22T07:08:28;99332.53;;;22.54;45.90
67740;BME280;54536;50.090;14.420;2023-05-22T07:10:54;99324.59;;;22.65;45.88
67740;BME280;54536;50.090;14.420;2023-05-22T07:13:20;99331.19;;;22.70;45.81
67740;BME280;54536;50.090;14.420;2023-05-22T07:15:47;99322.47;;;22.74;45.33
67740;BME280;54536;50.090;14.420;2023-05-22T07:18:13;99318.94;;;22.80;45.47
67740;BME280;54536;50.090;14.420;2023-05-22T07:20:40;99321.31;;;22.95;44.99
67740;BME280;54536;50.090;14.420;2023-05-22T07:23:06;99311.38;;;23.02;44.90
67740;BME280;54536;50.090;14.420;2023-05-22T07:25:34;99317.31;;;23.04;44.65
67740;BME280;54536;50.090;14.420;2023-05-22T07:28:00;99311.84;;;23.18;44.86
67740;BME280;54536;50.090;14.420;2023-05-22T07:30:29;99313.81;;;23.29;44.44
67740;BME280;54536;50.090;14.420;2023-05-22T07:32:55;99299.66;;;23.40;44.23
67740;BME280;54536;50.090;14.420;2023-05-22T07:35:21;99302.22;;;23.53;43.75
67740;BME280;54536;50.090;14.420;2023-05-22T07:37:47;99308.31;;;23.60;44.05
67740;BME280;54536;50.090;14.420;2023-05-22T07:40:14;99312.38;;;23.70;43.53
67740;BME280;54536;50.090;14.420;2023-05-22T07:42:40;99311.88;;;23.79;43.43
67740;BME280;54536;50.090;14.420;2023-05-22T07:45:07;99303.16;;;23.84;43.43
67740;BME280;54536;50.090;14.420;2023-05-22T07:47:33;99302.47;;;23.89;43.30
67740;BME280;54536;50.090;14.420;2023-05-22T07:49:59;99297.25;;;23.94;43.09
67740;BME280;54536;50.090;14.420;2023-05-22T07:52:29;99299.00;;;24.00;43.40
67740;BME280;54536;50.090;14.420;2023-05-22T07:54:56;99298.34;;;24.04;43.00
67740;BME280;54536;50.090;14.420;2023-05-22T07:57:22;99297.00;;;24.14;43.15
67740;BME280;54536;50.090;14.420;2023-05-22T07:59:49;99295.16;;;24.26;43.05
67740;BME280;54536;50.090;14.420;2023-05-22T08:02:17;99302.75;;;24.29;42.92
67740;BME280;54536;50.090;14.420;2023-05-22T08:04:44;99292.53;;;24.38;42.67
67740;BME280;54536;50.090;14.420;2023-05-22T08:07:10;99289.78;;;24.44;42.78
67740;BME280;54536;50.090;14.420;2023-05-22T08:09:36;99287.59;;;24.53;42.56
67740;BME280;54536;50.090;14.420;2023-05-22T08:12:02;99296.47;;;24.65;42.45
67740;BME280;54536;50.090;14.420;2023-05-22T08:14:29;99292.75;;;24.78;42.48
67740;BME280;54536;50.090;14.420;2023-05-22T08:16:55;99293.47;;;24.73;42.48
67740;BME280;54536;50.090;14.420;2023-05-22T08:19:24;99289.16;;;24.84;42.73
67740;BME280;54536;50.090;14.420;2023-05-22T08:21:50;99288.47;;;25.00;42.24
67740;BME280;54536;50.090;14.420;2023-05-22T08:24:24;99282.97;;;24.95;42.22
67740;BME280;54536;50.090;14.420;2023-05-22T08:26:54;99286.00;;;25.11;42.25
67740;BME280;54536;50.090;14.420;2023-05-22T08:29:21;99288.34;;;25.07;41.92
67740;BME280;54536;50.090;14.420;2023-05-22T08:31:47;99275.97;;;25.06;42.22
67740;BME280;54536;50.090;14.420;2023-05-22T08:34:13;99279.25;;;25.08;41.65
67740;BME280;54536;50.090;14.420;2023-05-22T08:36:39;99290.63;;;25.22;41.62
67740;BME280;54536;50.090;14.420;2023-05-22T08:39:08;99283.72;;;25.26;41.72
67740;BME280;54536;50.090;14.420;2023-05-22T08:41:34;99282.44;;;25.29;41.98
67740;BME280;54536;50.090;14.420;2023-05-22T08:44:01;99285.94;;;25.29;41.75
67740;BME280;54536;50.090;14.420;2023-05-22T08:46:27;99272.34;;;25.36;41.40
67740;BME280;54536;50.090;14.420;2023-05-22T08:48:56;99277.88;;;25.41;41.65
67740;BME280;54536;50.090;14.420;2023-05-22T08:51:27;99277.03;;;25.40;41.45
67740;BME280;54536;50.090;14.420;2023-05-22T08:53:57;99271.75;;;25.45;41.27
67740;BME280;54536;50.090;14.420;2023-05-22T08:56:24;99268.69;;;25.54;41.24
67740;BME280;54536;50.090;14.420;2023-05-22T08:58:52;99262.41;;;25.48;41.47
67740;BME280;54536;50.090;14.420;2023-05-22T09:01:19;99260.84;;;25.64;41.23
67740;BME280;54536;50.090;14.420;2023-05-22T09:03:46;99265.03;;;25.60;41.35
67740;BME280;54536;50.090;14.420;2023-05-22T09:06:16;99264.91;;;25.66;40.99
67740;BME280;54536;50.090;14.420;2023-05-22T09:08:42;99262.44;;;25.77;41.22
67740;BME280;54536;50.090;14.420;2023-05-22T09:11:09;99254.28;;;25.83;40.80
67740;BME280;54536;50.090;14.420;2023-05-22T09:13:38;99248.38;;;25.86;40.85
67740;BME280;54536;50.090;14.420;2023-05-22T09:16:12;99261.00;;;25.98;41.25
67740;BME280;54536;50.090;14.420;2023-05-22T09:18:40;99259.56;;;26.07;40.30
67740;BME280;54536;50.090;14.420;2023-05-22T09:21:11;99252.78;;;26.04;40.07
67740;BME280;54536;50.090;14.420;2023-05-22T09:23:38;99255.16;;;26.18;40.18
67740;BME280;54536;50.090;14.420;2023-05-22T09:26:04;99251.75;;;26.22;39.52
67740;BME280;54536;50.090;14.420;2023-05-22T09:28:35;99251.09;;;26.32;39.62
67740;BME280;54536;50.090;14.420;2023-05-22T09:31:05;99249.09;;;26.39;39.64
67740;BME280;54536;50.090;14.420;2023-05-22T09:33:31;99251.06;;;26.44;39.16
67740;BME280;54536;50.090;14.420;2023-05-22T09:35:58;99253.75;;;26.44;39.34
67740;BME280;54536;50.090;14.420;2023-05-22T09:38:28;99248.09;;;26.45;38.86
67740;BME280;54536;50.090;14.420;2023-05-22T09:40:55;99245.97;;;26.59;38.46
67740;BME280;54536;50.090;14.420;2023-05-22T09:43:23;99244.72;;;26.67;37.98
67740;BME280;54536;50.090;14.420;2023-05-22T09:45:59;99247.16;;;26.68;38.31
67740;BME280;54536;50.090;14.420;2023-05-22T09:48:26;99252.41;;;26.58;38.17
67740;BME280;54536;50.090;14.420;2023-05-22T09:50:53;99250.38;;;26.65;38.15
67740;BME280;54536;50.090;14.420;2023-05-22T09:53:25;99242.44;;;26.75;38.00
67740;BME280;54536;50.090;14.420;2023-05-22T09:55:55;99244.41;;;26.80;37.65
67740;BME280;54536;50.090;14.420;2023-05-22T09:58:26;99247.41;;;26.83;37.99
67740;BME280;54536;50.090;14.420;2023-05-22T10:00:56;99244.88;;;26.94;37.62
67740;BME280;54536;50.090;14.420;2023-05-22T10:03:24;99246.03;;;26.98;37.30
67740;BME280;54536;50.090;14.420;2023-05-22T10:05:53;99245.91;;;27.09;36.91
67740;BME280;54536;50.090;14.420;2023-05-22T10:08:27;99239.94;;;27.07;36.82
67740;BME280;54536;50.090;14.420;2023-05-22T10:10:54;99231.13;;;27.12;37.25
67740;BME280;54536;50.090;14.420;2023-05-22T10:13:20;99225.47;;;27.14;37.24
67740;BME280;54536;50.090;14.420;2023-05-22T10:15:47;99220.31;;;27.12;37.30
67740;BME280;54536;50.090;14.420;2023-05-22T10:18:15;99225.25;;;27.15;37.24
67740;BME280;54536;50.090;14.420;2023-05-22T10:20:42;99223.50;;;27.26;36.72
67740;BME280;54536;50.090;14.420;2023-05-22T10:23:09;99214.47;;;27.37;36.09
67740;BME280;54536;50.090;14.420;2023-05-22T10:25:36;99213.50;;;27.26;36.17
67740;BME280;54536;50.090;14.420;2023-05-22T10:28:05;99210.63;;;27.33;36.26
67740;BME280;54536;50.090;14.420;2023-05-22T10:30:49;99202.03;;;27.36;35.70
67740;BME280;54536;50.090;14.420;2023-05-22T10:33:28;99200.22;;;27.42;35.69
67740;BME280;54536;50.090;14.420;2023-05-22T10:41:03;99201.75;;;27.60;34.80
67740;BME280;54536;50.090;14.420;2023-05-22T10:43:31;99194.34;;;27.50;34.95
67740;BME280;54536;50.090;14.420;2023-05-22T10:46:05;99191.28;;;27.63;35.01
67740;BME280;54536;50.090;14.420;2023-05-22T10:48:48;99183.50;;;27.67;35.14
67740;BME280;54536;50.090;14.420;2023-05-22T10:51:21;99193.84;;;27.75;35.17
67740;BME280;54536;50.090;14.420;2023-05-22T10:53:55;99176.44;;;27.88;34.52
67740;BME280;54536;50.090;14.420;2023-05-22T10:56:22;99174.00;;;27.86;34.06
67740;BME280;54536;50.090;14.420;2023-05-22T10:58:59;99174.63;;;27.93;34.50
67740;BME280;54536;50.090;14.420;2023-05-22T11:01:34;99172.88;;;28.09;33.74
67740;BME280;54536;50.090;14.420;2023-05-22T11:06:33;99164.28;;;28.17;33.03
67740;BME280;54536;50.090;14.420;2023-05-22T11:09:17;99167.28;;;28.21;33.12
67740;BME280;54536;50.090;14.420;2023-05-22T11:11:45;99161.63;;;28.22;33.23
67740;BME280;54536;50.090;14.420;2023-05-22T11:14:15;99166.31;;;28.32;33.00
67740;BME280;54536;50.090;14.420;2023-05-22T11:16:43;99159.13;;;28.48;32.18
67740;BME280;54536;50.090;14.420;2023-05-22T11:19:09;99163.00;;;28.57;32.07
67740;BME280;54536;50.090;14.420;2023-05-22T11:21:42;99157.19;;;28.76;32.06
67740;BME280;54536;50.090;14.420;2023-05-22T11:24:10;99160.97;;;28.75;31.58
67740;BME280;54536;50.090;14.420;2023-05-22T11:26:41;99152.34;;;28.83;31.61
67740;BME280;54536;50.090;14.420;2023-05-22T11:29:08;99152.91;;;28.85;31.35
67740;BME280;54536;50.090;14.420;2023-05-22T11:31:37;99150.50;;;28.93;31.61
67740;BME280;54536;50.090;14.420;2023-05-22T11:34:04;99150.78;;;28.92;31.26
67740;BME280;54536;50.090;14.420;2023-05-22T11:36:31;99157.28;;;28.96;31.33
67740;BME280;54536;50.090;14.420;2023-05-22T11:38:58;99149.16;;;28.91;31.77
67740;BME280;54536;50.090;14.420;2023-05-22T11:41:32;99150.06;;;29.07;31.28
67740;BME280;54536;50.090;14.420;2023-05-22T11:43:59;99150.91;;;29.07;31.33
67740;BME280;54536;50.090;14.420;2023-05-22T11:46:26;99143.03;;;29.06;31.61
67740;BME280;54536;50.090;14.420;2023-05-22T11:48:53;99135.44;;;29.03;31.45
67740;BME280;54536;50.090;14.420;2023-05-22T11:51:19;99134.53;;;28.92;31.48
67740;BME280;54536;50.090;14.420;2023-05-22T11:53:47;99141.81;;;28.86;31.26
67740;BME280;54536;50.090;14.420;2023-05-22T11:56:13;99138.56;;;28.89;31.46
67740;BME280;54536;50.090;14.420;2023-05-22T11:58:39;99140.72;;;28.87;31.41
67740;BME280;54536;50.090;14.420;2023-05-22T12:01:05;99138.94;;;29.03;31.53
67740;BME280;54536;50.090;14.420;2023-05-22T12:03:32;99136.91;;;29.31;30.39
67740;BME280;54536;50.090;14.420;2023-05-22T12:06:00;99139.72;;;29.61;30.28
67740;BME280;54536;50.090;14.420;2023-05-22T12:08:27;99143.31;;;29.88;29.91
67740;BME280;54536;50.090;14.420;2023-05-22T12:10:53;99140.38;;;30.30;28.96
67740;BME280;54536;50.090;14.420;2023-05-22T12:13:28;99137.91;;;30.49;28.90
67740;BME280;54536;50.090;14.420;2023-05-22T12:15:57;99129.88;;;31.19;27.33
67740;BME280;54536;50.090;14.420;2023-05-22T12:18:26;99126.75;;;31.56;26.69
67740;BME280;54536;50.090;14.420;2023-05-22T12:20:54;99128.44;;;32.26;26.34
67740;BME280;54536;50.090;14.420;2023-05-22T12:23:24;99120.06;;;32.75;25.02
67740;BME280;54536;50.090;14.420;2023-05-22T12:26:02;99112.31;;;33.54;24.10
67740;BME280;54536;50.090;14.420;2023-05-22T12:28:32;99115.53;;;34.13;22.94
67740;BME280;54536;50.090;14.420;2023-05-22T12:30:58;99114.84;;;34.54;23.03
67740;BME280;54536;50.090;14.420;2023-05-22T12:33:28;99114.78;;;34.73;22.93
67740;BME280;54536;50.090;14.420;2023-05-22T12:35:57;99107.97;;;34.98;22.04
67740;BME280;54536;50.090;14.420;2023-05-22T12:38:26;99104.34;;;35.16;21.88
67740;BME280;54536;50.090;14.420;2023-05-22T12:40:53;99099.59;;;34.81;22.75
67740;BME280;54536;50.090;14.420;2023-05-22T12:43:24;99102.56;;;34.38;22.49
67740;BME280;54536;50.090;14.420;2023-05-22T12:45:51;99100.50;;;33.78;22.73
67740;BME280;54536;50.090;14.420;2023-05-22T12:48:17;99097.25;;;33.38;23.96
67740;BME280;54536;50.090;14.420;2023-05-22T12:50:45;99099.38;;;33.41;23.74
67740;BME280;54536;50.090;14.420;2023-05-22T12:53:12;99098.00;;;33.44;24.05
67740;BME280;54536;50.090;14.420;2023-05-22T12:55:39;99093.84;;;33.27;23.81
67740;BME280;54536;50.090;14.420;2023-05-22T12:58:06;99098.63;;;33.60;23.78
67740;BME280;54536;50.090;14.420;2023-05-22T13:00:33;99093.06;;;33.46;23.41
67740;BME280;54536;50.090;14.420;2023-05-22T13:03:00;99099.56;;;33.50;23.67
67740;BME280;54536;50.090;14.420;2023-05-22T13:05:26;99088.88;;;33.72;22.75
67740;BME280;54536;50.090;14.420;2023-05-22T13:07:52;99093.59;;;33.86;23.75
67740;BME280;54536;50.090;14.420;2023-05-22T13:10:18;99092.88;;;34.13;23.47
67740;BME280;54536;50.090;14.420;2023-05-22T13:12:45;99080.97;;;33.90;22.50
67740;BME280;54536;50.090;14.420;2023-05-22T13:15:17;99081.56;;;33.68;23.76